createdAt,value
2023-03-14T00:00:19.013Z,99034.13
2023-03-14T00:03:05.872Z,99020.13
2023-03-14T00:05:48.146Z,99019.53
2023-03-14T00:08:36.904Z,99015.00
2023-03-14T00:11:18.786Z,99016.03
2023-03-14T00:14:14.151Z,99009.84
2023-03-14T00:17:00.940Z,98997.06
2023-03-14T00:19:50.600Z,99008.81
2023-03-14T00:22:33.951Z,98994.38
2023-03-14T00:25:18.051Z,98991.06
2023-03-14T00:27:56.963Z,98984.25
2023-03-14T00:30:41.432Z,98994.78
2023-03-14T00:33:23.647Z,98980.97
2023-03-14T00:36:21.378Z,98984.06
2023-03-14T00:39:06.547Z,98969.81
2023-03-14T00:41:49.946Z,98957.88
2023-03-14T00:44:37.049Z,98968.59
2023-03-14T00:47:33.190Z,98959.31
2023-03-14T00:50:17.026Z,98958.69
2023-03-14T00:53:01.693Z,98952.72
2023-03-14T00:55:43.440Z,98945.94
2023-03-14T00:58:22.476Z,98949.63
2023-03-14T01:01:06.777Z,98947.38
2023-03-14T01:03:48.597Z,98942.59
2023-03-14T01:06:36.697Z,98955.19
2023-03-14T01:09:17.479Z,98944.69
2023-03-14T01:12:00.690Z,98938.69
2023-03-14T01:14:43.918Z,98931.06
2023-03-14T01:17:35.297Z,98927.59
2023-03-14T01:20:16.015Z,98932.31
2023-03-14T01:23:02.713Z,98915.84
2023-03-14T01:25:49.186Z,98913.78
2023-03-14T01:28:25.988Z,98912.56
2023-03-14T01:31:12.668Z,98905.13
2023-03-14T01:33:59.526Z,98900.59
2023-03-14T01:36:38.157Z,98908.44
2023-03-14T01:39:23.040Z,98895.25
2023-03-14T01:42:08.049Z,98880.41
2023-03-14T01:45:29.483Z,98882.88
2023-03-14T01:48:13.305Z,98878.13
2023-03-14T01:51:01.536Z,98856.94
2023-03-14T01:53:44.887Z,98856.50
2023-03-14T01:56:29.723Z,98843.75
2023-03-14T01:59:17.039Z,98838.19
2023-03-14T02:02:00.773Z,98833.84
2023-03-14T02:04:47.954Z,98821.09
2023-03-14T02:07:52.319Z,98817.41
2023-03-14T02:10:53.589Z,98812.66
2023-03-14T02:14:08.961Z,98814.91
2023-03-14T02:17:13.603Z,98802.94
2023-03-14T02:20:24.534Z,98795.13
2023-03-14T02:23:09.568Z,98778.22
2023-03-14T02:25:54.939Z,98778.88
2023-03-14T02:28:38.670Z,98767.53
2023-03-14T02:31:27.779Z,98781.16
2023-03-14T02:34:10.553Z,98785.44
2023-03-14T02:36:53.992Z,98779.50
2023-03-14T02:39:49.971Z,98774.13
2023-03-14T02:42:27.537Z,98787.75
2023-03-14T02:45:18.083Z,98781.75
2023-03-14T02:48:03.913Z,98773.91
2023-03-14T02:50:57.033Z,98778.22
2023-03-14T02:53:50.755Z,98779.28
2023-03-14T02:56:38.980Z,98768.34
2023-03-14T02:59:25.851Z,98777.34
2023-03-14T03:02:21.974Z,98771.28
2023-03-14T03:05:06.774Z,98766.16
2023-03-14T03:08:01.889Z,98766.59
2023-03-14T03:10:44.954Z,98750.31
2023-03-14T03:13:30.684Z,98759.75
2023-03-14T03:16:31.964Z,98751.91
2023-03-14T03:19:16.982Z,98749.69
2023-03-14T03:22:00.302Z,98753.66
2023-03-14T03:24:41.337Z,98741.97
2023-03-14T03:27:26.732Z,98753.09
2023-03-14T03:30:10.370Z,98738.06
2023-03-14T03:32:48.839Z,98751.66
2023-03-14T03:35:33.179Z,98737.69
2023-03-14T03:38:12.834Z,98740.38
2023-03-14T03:40:54.188Z,98738.47
2023-03-14T03:43:33.433Z,98752.25
2023-03-14T03:46:17.425Z,98726.53
2023-03-14T03:49:03.012Z,98724.28
2023-03-14T03:51:46.153Z,98727.78
2023-03-14T03:54:30.467Z,98728.63
2023-03-14T03:57:11.760Z,98724.47
2023-03-14T04:00:06.446Z,98717.66
2023-03-14T04:02:55.059Z,98730.81
2023-03-14T04:05:39.625Z,98731.00
2023-03-14T04:08:35.638Z,98727.00
2023-03-14T04:11:19.455Z,98724.34
2023-03-14T04:14:16.226Z,98719.19
2023-03-14T04:17:03.889Z,98717.19
2023-03-14T04:19:51.112Z,98719.06
2023-03-14T04:22:32.754Z,98706.97
2023-03-14T04:25:26.751Z,98686.00
2023-03-14T04:28:05.114Z,98682.72
2023-03-14T04:30:47.035Z,98683.97
2023-03-14T04:33:38.233Z,98682.94
2023-03-14T04:36:31.476Z,98667.94
2023-03-14T04:39:18.485Z,98662.78
2023-03-14T04:42:20.720Z,98656.22
2023-03-14T04:45:04.707Z,98671.06
2023-03-14T04:47:46.754Z,98678.63
2023-03-14T04:50:32.228Z,98689.34
2023-03-14T04:53:18.501Z,98692.44
2023-03-14T04:56:10.623Z,98693.84
2023-03-14T04:58:57.092Z,98689.31
2023-03-14T05:01:42.306Z,98690.09
2023-03-14T05:04:58.542Z,98691.69
2023-03-14T05:08:02.658Z,98704.69
2023-03-14T05:11:11.211Z,98702.03
2023-03-14T05:14:07.170Z,98699.56
2023-03-14T05:17:01.855Z,98687.59
2023-03-14T05:19:42.100Z,98672.38
2023-03-14T05:22:45.114Z,98679.84
2023-03-14T05:25:52.026Z,98679.00
2023-03-14T05:29:16.969Z,98688.06
2023-03-14T05:32:06.433Z,98680.22
2023-03-14T05:35:08.244Z,98667.72
2023-03-14T05:38:19.975Z,98660.13
2023-03-14T05:41:23.929Z,98663.00
2023-03-14T05:44:28.469Z,98662.13
2023-03-14T05:47:12.152Z,98662.03
2023-03-14T05:50:17.229Z,98648.75
2023-03-14T05:53:12.429Z,98650.78
2023-03-14T05:56:13.208Z,98649.06
2023-03-14T05:59:17.403Z,98649.06
2023-03-14T06:02:24.368Z,98645.56
2023-03-14T06:05:19.883Z,98648.91
2023-03-14T06:08:13.648Z,98651.53
2023-03-14T06:11:03.306Z,98664.69
2023-03-14T06:13:47.950Z,98663.00
2023-03-14T06:16:33.877Z,98659.84
2023-03-14T06:19:22.165Z,98664.50
2023-03-14T06:22:11.806Z,98655.69
2023-03-14T06:24:59.706Z,98651.72
2023-03-14T06:27:38.514Z,98658.69
2023-03-14T06:30:19.126Z,98662.16
2023-03-14T06:33:09.854Z,98656.38
2023-03-14T06:36:04.002Z,98659.28
2023-03-14T06:38:58.138Z,98657.38
2023-03-14T06:41:42.050Z,98666.81
2023-03-14T06:44:25.419Z,98662.53
2023-03-14T06:47:07.041Z,98662.41
2023-03-14T06:49:46.706Z,98666.50
2023-03-14T06:52:38.692Z,98665.34
2023-03-14T06:55:28.348Z,98657.25
2023-03-14T06:58:23.488Z,98658.78
2023-03-14T07:01:05.319Z,98663.38
2023-03-14T07:03:55.762Z,98664.00
2023-03-14T07:06:48.285Z,98658.00
2023-03-14T07:09:29.629Z,98659.44
2023-03-14T07:12:16.638Z,98649.28
2023-03-14T07:15:19.115Z,98654.16
2023-03-14T07:18:12.884Z,98651.28
2023-03-14T07:20:55.305Z,98647.66
2023-03-14T07:23:36.627Z,98644.28
2023-03-14T07:26:28.943Z,98636.84
2023-03-14T07:29:09.777Z,98638.09
2023-03-14T07:31:54.077Z,98634.63
2023-03-14T07:34:37.829Z,98637.56
2023-03-14T07:37:26.907Z,98635.69
2023-03-14T07:40:13.588Z,98630.66
2023-03-14T07:43:10.091Z,98622.31
2023-03-14T07:46:09.507Z,98619.66
2023-03-14T07:48:47.360Z,98627.91
2023-03-14T07:51:34.163Z,98626.44
2023-03-14T07:54:25.877Z,98621.34
2023-03-14T07:57:21.013Z,98621.91
2023-03-14T08:00:10.096Z,98618.66
2023-03-14T08:03:03.908Z,98616.41
2023-03-14T08:05:55.725Z,98629.94
2023-03-14T08:08:52.234Z,98612.56
2023-03-14T08:11:36.675Z,98620.19
2023-03-14T08:14:16.119Z,98612.28
2023-03-14T08:16:57.299Z,98611.16
2023-03-14T08:19:43.062Z,98596.44
2023-03-14T08:22:24.028Z,98592.88
2023-03-14T08:25:04.007Z,98598.06
2023-03-14T08:27:44.635Z,98594.84
2023-03-14T08:30:27.486Z,98596.91
2023-03-14T08:33:11.167Z,98587.06
2023-03-14T08:36:11.774Z,98586.44
2023-03-14T08:38:58.691Z,98573.78
2023-03-14T08:41:41.384Z,98582.44
2023-03-14T08:44:24.730Z,98590.16
2023-03-14T08:47:18.040Z,98584.53
2023-03-14T08:50:00.462Z,98582.44
2023-03-14T08:52:41.336Z,98579.28
2023-03-14T08:55:35.995Z,98575.66
2023-03-14T08:58:26.022Z,98564.75
2023-03-14T09:01:22.455Z,98570.28
2023-03-14T09:04:00.836Z,98562.31
2023-03-14T09:06:45.360Z,98551.47
2023-03-14T09:09:32.308Z,98542.03
2023-03-14T09:12:19.474Z,98536.34
2023-03-14T09:15:06.419Z,98533.59
2023-03-14T09:17:50.356Z,98535.63
2023-03-14T09:20:59.530Z,98534.31
2023-03-14T09:23:52.958Z,98519.94
2023-03-14T09:26:37.664Z,98499.44
2023-03-14T09:29:21.987Z,98507.22
2023-03-14T09:32:05.876Z,98496.31
2023-03-14T09:34:49.041Z,98500.38
2023-03-14T09:37:41.649Z,98500.38
2023-03-14T09:40:36.046Z,98503.88
2023-03-14T09:43:21.426Z,98492.75
2023-03-14T09:46:03.153Z,98501.78
2023-03-14T09:48:52.979Z,98501.25
2023-03-14T09:51:33.699Z,98490.63
2023-03-14T09:54:30.497Z,98477.75
2023-03-14T09:57:12.636Z,98463.69
2023-03-14T10:00:02.705Z,98452.13
2023-03-14T10:02:47.643Z,98453.44
2023-03-14T10:05:30.736Z,98450.78
2023-03-14T10:08:16.455Z,98447.16
2023-03-14T10:11:06.933Z,98450.00
2023-03-14T10:14:19.012Z,98439.25
2023-03-14T10:17:05.844Z,98427.34
2023-03-14T10:20:11.184Z,98438.19
2023-03-14T10:23:00.121Z,98424.75
2023-03-14T10:26:02.209Z,98430.06
2023-03-14T10:29:08.250Z,98433.34
2023-03-14T10:32:20.496Z,98412.13
2023-03-14T10:35:23.103Z,98406.19
2023-03-14T10:38:06.553Z,98403.66
2023-03-14T10:40:53.953Z,98407.44
2023-03-14T10:43:53.532Z,98393.97
2023-03-14T10:46:34.942Z,98397.03
2023-03-14T10:49:56.875Z,98387.25
2023-03-14T10:53:03.567Z,98382.03
2023-03-14T10:55:47.747Z,98384.53
2023-03-14T10:58:52.747Z,98375.81
2023-03-14T11:01:53.683Z,98369.84
2023-03-14T11:05:05.730Z,98352.81
2023-03-14T11:07:51.664Z,98361.31
2023-03-14T11:10:51.406Z,98340.66
2023-03-14T11:13:40.682Z,98337.09
2023-03-14T11:16:49.663Z,98336.75
2023-03-14T11:19:47.760Z,98327.06
2023-03-14T11:22:32.561Z,98323.19
2023-03-14T11:25:36.006Z,98323.69
2023-03-14T11:28:48.877Z,98308.59
2023-03-14T11:31:45.240Z,98304.13
2023-03-14T11:34:44.601Z,98298.63
2023-03-14T11:37:47.623Z,98291.53
2023-03-14T11:40:48.944Z,98279.38
2023-03-14T11:43:38.935Z,98282.75
2023-03-14T11:46:34.391Z,98271.81
2023-03-14T11:49:48.607Z,98258.41
2023-03-14T11:52:54.068Z,98259.84
2023-03-14T11:55:46.309Z,98255.16
2023-03-14T11:58:44.439Z,98252.88
2023-03-14T12:01:30.365Z,98244.63
2023-03-14T12:04:16.683Z,98243.28
2023-03-14T12:07:04.650Z,98226.13
2023-03-14T12:09:53.669Z,98222.97
2023-03-14T12:12:37.028Z,98216.44
2023-03-14T12:15:27.480Z,98210.50
2023-03-14T12:18:20.860Z,98206.16
2023-03-14T12:21:15.822Z,98199.75
2023-03-14T12:24:10.727Z,98197.63
2023-03-14T12:27:14.207Z,98187.69
2023-03-14T12:30:26.032Z,98184.19
2023-03-14T12:33:31.072Z,98186.97
2023-03-14T12:36:21.316Z,98188.34
2023-03-14T12:39:29.651Z,98185.75
2023-03-14T12:42:44.035Z,98183.00
2023-03-14T12:45:38.113Z,98184.91
2023-03-14T12:48:34.564Z,98181.03
2023-03-14T12:51:33.721Z,98181.03
2023-03-14T12:54:58.238Z,98170.69
2023-03-14T12:58:03.622Z,98171.97
2023-03-14T13:00:55.247Z,98169.91
2023-03-14T13:03:48.852Z,98166.44
2023-03-14T13:06:58.090Z,98156.25
2023-03-14T13:10:05.486Z,98151.25
2023-03-14T13:13:08.558Z,98151.88
2023-03-14T13:16:06.418Z,98146.06
2023-03-14T13:19:23.252Z,98144.72
2023-03-14T13:22:09.964Z,98153.50
2023-03-14T13:25:22.204Z,98142.88
2023-03-14T13:28:06.114Z,98154.81
2023-03-14T13:31:00.102Z,98151.53
2023-03-14T13:33:49.165Z,98152.91
2023-03-14T13:36:34.435Z,98168.66
2023-03-14T13:39:31.234Z,98173.59
2023-03-14T13:42:17.672Z,98193.22
2023-03-14T13:44:59.681Z,98185.81
2023-03-14T13:47:51.905Z,98183.38
2023-03-14T13:50:43.402Z,98179.09
2023-03-14T13:53:39.708Z,98187.09
2023-03-14T13:56:20.350Z,98184.91
2023-03-14T13:59:10.773Z,98185.81
2023-03-14T14:01:57.455Z,98184.50
2023-03-14T14:04:50.320Z,98178.00
2023-03-14T14:07:38.146Z,98186.44
2023-03-14T14:10:32.044Z,98183.00
2023-03-14T14:13:18.480Z,98179.31
2023-03-14T14:16:16.617Z,98183.78
2023-03-14T14:18:56.556Z,98177.28
2023-03-14T14:21:43.606Z,98181.31
2023-03-14T14:24:36.341Z,98174.16
2023-03-14T14:27:31.635Z,98173.13
2023-03-14T14:30:36.843Z,98179.38
2023-03-14T14:33:27.704Z,98168.91
2023-03-14T14:36:09.369Z,98169.47
2023-03-14T14:39:06.230Z,98174.94
2023-03-14T14:41:51.868Z,98171.06
2023-03-14T14:44:48.615Z,98171.34
2023-03-14T14:47:40.549Z,98169.94
2023-03-14T14:50:38.801Z,98168.38
2023-03-14T14:53:30.529Z,98175.03
2023-03-14T14:56:27.046Z,98179.38
2023-03-14T14:59:23.698Z,98180.69
2023-03-14T15:02:21.665Z,98176.13
2023-03-14T15:05:01.656Z,98169.69
2023-03-14T15:07:39.033Z,98171.13
2023-03-14T15:10:27.749Z,98171.72
2023-03-14T15:13:06.240Z,98174.75
2023-03-14T15:15:51.317Z,98183.78
2023-03-14T15:18:39.788Z,98179.94
2023-03-14T15:21:21.702Z,98181.38
2023-03-14T15:24:07.130Z,98189.16
2023-03-14T15:26:49.676Z,98190.78
2023-03-14T15:29:40.772Z,98189.75
2023-03-14T15:32:38.816Z,98195.63
2023-03-14T15:35:32.158Z,98196.94
2023-03-14T15:38:24.544Z,98205.13
2023-03-14T15:41:19.638Z,98208.28
2023-03-14T15:44:09.501Z,98207.47
2023-03-14T15:46:53.522Z,98204.72
2023-03-14T15:49:46.880Z,98218.03
2023-03-14T15:52:32.693Z,98215.91
2023-03-14T15:55:28.605Z,98225.13
2023-03-14T15:58:21.890Z,98243.34
2023-03-14T16:01:01.015Z,98256.66
2023-03-14T16:03:56.076Z,98271.19
2023-03-14T16:06:42.083Z,98288.66
2023-03-14T16:09:31.044Z,98289.59
2023-03-14T16:12:16.221Z,98295.69
2023-03-14T16:15:16.329Z,98302.88
2023-03-14T16:18:00.823Z,98289.50
2023-03-14T16:20:51.609Z,98287.03
2023-03-14T16:23:42.353Z,98290.47
2023-03-14T16:26:37.546Z,98291.31
2023-03-14T16:29:32.442Z,98299.75
2023-03-14T16:32:21.153Z,98302.78
2023-03-14T16:35:10.024Z,98309.72
2023-03-14T16:37:53.431Z,98300.81
2023-03-14T16:40:45.129Z,98302.31
2023-03-14T16:43:28.364Z,98295.06
2023-03-14T16:46:17.648Z,98298.28
2023-03-14T16:48:53.833Z,98301.00
2023-03-14T16:51:43.287Z,98291.84
2023-03-14T16:54:28.031Z,98304.09
2023-03-14T16:57:10.800Z,98303.31
2023-03-14T16:59:59.541Z,98307.19
2023-03-14T17:02:40.453Z,98323.47
2023-03-14T17:05:23.742Z,98331.91
2023-03-14T17:08:09.517Z,98335.97
2023-03-14T17:10:53.304Z,98338.44
2023-03-14T17:13:44.282Z,98336.78
2023-03-14T17:16:37.275Z,98351.16
2023-03-14T17:19:18.589Z,98365.81
2023-03-14T17:22:21.878Z,98364.22
2023-03-14T17:25:15.807Z,98368.78
2023-03-14T17:27:59.065Z,98367.41
2023-03-14T17:30:43.595Z,98374.50
2023-03-14T17:33:41.473Z,98370.13
2023-03-14T17:36:29.488Z,98377.47
2023-03-14T17:39:27.555Z,98382.88
2023-03-14T17:42:16.685Z,98383.69
2023-03-14T17:45:02.410Z,98380.97
2023-03-14T17:47:53.838Z,98386.69
2023-03-14T17:50:38.133Z,98384.47
2023-03-14T17:53:26.569Z,98393.69
2023-03-14T17:56:13.580Z,98385.56
2023-03-14T17:59:03.891Z,98383.91
2023-03-14T18:01:54.152Z,98388.78
2023-03-14T18:04:47.171Z,98391.81
2023-03-14T18:07:33.542Z,98392.09
2023-03-14T18:10:17.620Z,98404.53
2023-03-14T18:13:06.817Z,98408.31
2023-03-14T18:15:55.606Z,98405.34
2023-03-14T18:18:42.480Z,98401.81
2023-03-14T18:21:30.335Z,98394.19
2023-03-14T18:24:22.202Z,98398.28
2023-03-14T18:27:15.608Z,98400.16
2023-03-14T18:29:55.988Z,98402.34
2023-03-14T18:32:37.175Z,98402.56
2023-03-14T18:35:27.626Z,98396.06
2023-03-14T18:38:19.408Z,98404.19
2023-03-14T18:41:16.654Z,98399.28
2023-03-14T18:44:08.845Z,98400.16
2023-03-14T18:46:58.675Z,98397.59
2023-03-14T18:49:43.836Z,98394.63
2023-03-14T18:52:23.606Z,98396.84
2023-03-14T18:55:07.905Z,98399.50
2023-03-14T18:57:48.943Z,98392.19
2023-03-14T19:00:37.431Z,98389.84
2023-03-14T19:03:36.024Z,98389.09
2023-03-14T19:06:24.389Z,98375.31
2023-03-14T19:09:19.134Z,98368.28
2023-03-14T19:12:07.495Z,98363.41
2023-03-14T19:14:48.485Z,98371.25
2023-03-14T19:17:41.102Z,98367.97
2023-03-14T19:20:30.026Z,98368.75
2023-03-14T19:23:16.562Z,98369.03
2023-03-14T19:26:03.552Z,98370.94
2023-03-14T19:28:50.057Z,98367.94
2023-03-14T19:31:29.435Z,98365.16
2023-03-14T19:34:13.603Z,98378.69
2023-03-14T19:36:55.001Z,98371.91
2023-03-14T19:39:38.969Z,98362.41
2023-03-14T19:42:24.972Z,98359.72
2023-03-14T19:45:13.082Z,98366.22
2023-03-14T19:47:53.952Z,98375.09
2023-03-14T19:50:42.768Z,98370.84
2023-03-14T19:53:24.637Z,98371.34
2023-03-14T19:56:14.126Z,98371.88
2023-03-14T19:59:08.604Z,98360.28
2023-03-14T20:01:54.803Z,98357.47
2023-03-14T20:04:39.612Z,98348.03
2023-03-14T20:07:26.050Z,98348.31
2023-03-14T20:10:28.498Z,98343.97
2023-03-14T20:13:21.918Z,98347.25
2023-03-14T20:16:04.202Z,98350.75
2023-03-14T20:18:44.898Z,98347.03
2023-03-14T20:21:30.817Z,98354.94
2023-03-14T20:24:13.482Z,98374.44
2023-03-14T20:27:01.537Z,98374.06
2023-03-14T20:29:43.945Z,98364.81
2023-03-14T20:32:32.711Z,98363.75
2023-03-14T20:35:38.519Z,98371.44
2023-03-14T20:38:22.490Z,98373.28
2023-03-14T20:41:10.706Z,98376.44
2023-03-14T20:43:54.564Z,98384.25
2023-03-14T20:46:48.475Z,98383.09
2023-03-14T20:49:46.644Z,98388.25
2023-03-14T20:52:38.056Z,98386.91
2023-03-14T20:55:22.947Z,98395.84
2023-03-14T20:58:08.585Z,98392.00
2023-03-14T21:00:50.879Z,98411.84
2023-03-14T21:03:41.619Z,98430.38
2023-03-14T21:06:33.436Z,98422.97
2023-03-14T21:09:20.592Z,98430.13
2023-03-14T21:12:10.740Z,98426.50
2023-03-14T21:15:00.414Z,98442.13
2023-03-14T21:17:49.696Z,98439.66
2023-03-14T21:21:03.174Z,98440.50
2023-03-14T21:23:59.691Z,98439.94
2023-03-14T21:26:48.796Z,98450.09
2023-03-14T21:29:32.428Z,98453.97
2023-03-14T21:34:52.820Z,98457.28
2023-03-14T21:37:42.607Z,98456.94
2023-03-14T21:40:22.607Z,98455.59
2023-03-14T21:43:17.416Z,98455.59
2023-03-14T21:45:59.587Z,98453.41
2023-03-14T21:48:48.633Z,98463.97
2023-03-14T21:51:48.996Z,98455.31
2023-03-14T21:54:50.259Z,98463.06
2023-03-14T21:57:31.105Z,98469.94
2023-03-14T22:00:15.618Z,98473.16
2023-03-14T22:03:13.218Z,98468.59
2023-03-14T22:05:55.343Z,98475.94
2023-03-14T22:08:37.095Z,98467.03
2023-03-14T22:11:17.595Z,98479.72
2023-03-14T22:14:09.586Z,98477.75
2023-03-14T22:16:59.917Z,98486.78
2023-03-14T22:19:57.542Z,98485.28
2023-03-14T22:22:42.314Z,98487.63
2023-03-14T22:25:31.809Z,98493.66
2023-03-14T22:28:27.187Z,98490.72
2023-03-14T22:31:08.623Z,98483.31
2023-03-14T22:33:55.113Z,98495.41
2023-03-14T22:36:39.562Z,98482.72
2023-03-14T22:39:34.304Z,98490.16
2023-03-14T22:42:22.825Z,98483.44
2023-03-14T22:45:02.663Z,98498.44
2023-03-14T22:47:52.446Z,98494.16
2023-03-14T22:50:48.669Z,98493.53
2023-03-14T22:53:28.886Z,98491.72
2023-03-14T22:56:10.514Z,98496.09
2023-03-14T22:58:57.580Z,98500.84
2023-03-14T23:01:37.333Z,98498.63
2023-03-14T23:04:21.014Z,98498.41
2023-03-14T23:07:12.879Z,98502.78
2023-03-14T23:09:55.294Z,98511.81
2023-03-14T23:12:37.421Z,98510.31
2023-03-14T23:15:18.461Z,98499.38
2023-03-14T23:18:07.204Z,98489.06
2023-03-14T23:20:51.296Z,98492.72
2023-03-14T23:23:35.041Z,98497.41
2023-03-14T23:26:29.417Z,98501.97
2023-03-14T23:29:10.219Z,98516.44
2023-03-14T23:32:04.620Z,98516.44
2023-03-14T23:34:50.921Z,98524.47
2023-03-14T23:37:40.226Z,98511.84
2023-03-14T23:40:26.370Z,98514.56
2023-03-14T23:43:19.773Z,98509.28
2023-03-14T23:46:10.648Z,98511.25
2023-03-14T23:48:53.861Z,98516.56
2023-03-14T23:51:40.062Z,98518.19
2023-03-14T23:54:28.799Z,98514.09
2023-03-14T23:57:22.553Z,98504.88
2023-03-14T23:59:59.415Z,98508.44
